sensor_id;sensor_type;location;lat;lon;timestamp;P1;durP1;ratioP1;P2;durP2;ratioP2
52668;SDS011;59898;52.786;6.892;2022-11-15T00:01:55;19.92;;;14.85;;
52668;SDS011;59898;52.786;6.892;2022-11-15T00:05:16;20.23;;;14.77;;
52668;SDS011;59898;52.786;6.892;2022-11-15T00:08:36;22.80;;;15.52;;
52668;SDS011;59898;52.786;6.892;2022-11-15T00:11:57;17.75;;;14.65;;
52668;SDS011;59898;52.786;6.892;2022-11-15T00:15:18;19.73;;;15.15;;
52668;SDS011;59898;52.786;6.892;2022-11-15T00:18:38;18.10;;;14.13;;
52668;SDS011;59898;52.786;6.892;2022-11-15T00:21:59;19.58;;;15.32;;
52668;SDS011;59898;52.786;6.892;2022-11-15T00:25:20;22.85;;;15.48;;
52668;SDS011;59898;52.786;6.892;2022-11-15T00:28:41;24.48;;;15.27;;
52668;SDS011;59898;52.786;6.892;2022-11-15T00:32:02;21.48;;;16.00;;
52668;SDS011;59898;52.786;6.892;2022-11-15T00:35:23;21.40;;;16.55;;
52668;SDS011;59898;52.786;6.892;2022-11-15T00:38:43;19.88;;;15.82;;
52668;SDS011;59898;52.786;6.892;2022-11-15T00:42:04;22.35;;;16.42;;
52668;SDS011;59898;52.786;6.892;2022-11-15T00:45:25;21.95;;;15.13;;
52668;SDS011;59898;52.786;6.892;2022-11-15T00:48:46;26.95;;;16.45;;
52668;SDS011;59898;52.786;6.892;2022-11-15T00:52:07;23.30;;;15.95;;
52668;SDS011;59898;52.786;6.892;2022-11-15T00:55:27;23.02;;;13.82;;
52668;SDS011;59898;52.786;6.892;2022-11-15T00:58:48;24.60;;;15.32;;
52668;SDS011;59898;52.786;6.892;2022-11-15T01:02:09;24.55;;;15.13;;
52668;SDS011;59898;52.786;6.892;2022-11-15T01:05:29;23.20;;;15.63;;
52668;SDS011;59898;52.786;6.892;2022-11-15T01:08:50;24.50;;;14.18;;
52668;SDS011;59898;52.786;6.892;2022-11-15T01:12:11;21.13;;;14.38;;
52668;SDS011;59898;52.786;6.892;2022-11-15T01:15:31;25.23;;;15.55;;
52668;SDS011;59898;52.786;6.892;2022-11-15T01:18:52;26.27;;;15.48;;
52668;SDS011;59898;52.786;6.892;2022-11-15T01:22:13;21.85;;;16.48;;
52668;SDS011;59898;52.786;6.892;2022-11-15T01:25:33;21.08;;;14.18;;
52668;SDS011;59898;52.786;6.892;2022-11-15T01:28:54;24.55;;;15.10;;
52668;SDS011;59898;52.786;6.892;2022-11-15T01:32:15;27.90;;;16.50;;
52668;SDS011;59898;52.786;6.892;2022-11-15T01:35:38;25.73;;;18.33;;
52668;SDS011;59898;52.786;6.892;2022-11-15T01:38:59;21.52;;;15.77;;
52668;SDS011;59898;52.786;6.892;2022-11-15T01:42:20;19.95;;;15.07;;
52668;SDS011;59898;52.786;6.892;2022-11-15T01:45:41;25.17;;;16.58;;
52668;SDS011;59898;52.786;6.892;2022-11-15T01:49:03;23.88;;;15.98;;
52668;SDS011;59898;52.786;6.892;2022-11-15T01:52:32;26.50;;;15.60;;
52668;SDS011;59898;52.786;6.892;2022-11-15T01:55:54;25.05;;;15.75;;
52668;SDS011;59898;52.786;6.892;2022-11-15T01:59:15;24.17;;;15.68;;
52668;SDS011;59898;52.786;6.892;2022-11-15T02:02:36;22.27;;;14.93;;
52668;SDS011;59898;52.786;6.892;2022-11-15T02:05:57;23.58;;;14.52;;
52668;SDS011;59898;52.786;6.892;2022-11-15T02:09:19;26.67;;;15.57;;
52668;SDS011;59898;52.786;6.892;2022-11-15T02:12:40;25.65;;;15.07;;
52668;SDS011;59898;52.786;6.892;2022-11-15T02:22:57;29.50;;;17.13;;
52668;SDS011;59898;52.786;6.892;2022-11-15T02:30:38;32.35;;;17.25;;
52668;SDS011;59898;52.786;6.892;2022-11-15T02:44:46;25.37;;;16.90;;
52668;SDS011;59898;52.786;6.892;2022-11-15T02:48:07;30.40;;;18.75;;
52668;SDS011;59898;52.786;6.892;2022-11-15T02:51:30;25.58;;;16.67;;
52668;SDS011;59898;52.786;6.892;2022-11-15T02:54:56;28.02;;;15.88;;
52668;SDS011;59898;52.786;6.892;2022-11-15T03:02:14;30.05;;;17.88;;
52668;SDS011;59898;52.786;6.892;2022-11-15T03:09:49;31.48;;;18.10;;
52668;SDS011;59898;52.786;6.892;2022-11-15T03:14:01;29.88;;;17.75;;
52668;SDS011;59898;52.786;6.892;2022-11-15T03:17:30;30.30;;;19.55;;
52668;SDS011;59898;52.786;6.892;2022-11-15T03:21:01;29.48;;;19.00;;
52668;SDS011;59898;52.786;6.892;2022-11-15T03:24:25;32.53;;;18.77;;
52668;SDS011;59898;52.786;6.892;2022-11-15T03:31:12;29.13;;;18.92;;
52668;SDS011;59898;52.786;6.892;2022-11-15T03:35:01;30.75;;;19.40;;
52668;SDS011;59898;52.786;6.892;2022-11-15T03:38:24;28.67;;;17.30;;
52668;SDS011;59898;52.786;6.892;2022-11-15T03:45:45;39.17;;;20.45;;
52668;SDS011;59898;52.786;6.892;2022-11-15T03:49:15;32.58;;;20.60;;
52668;SDS011;59898;52.786;6.892;2022-11-15T03:52:45;40.47;;;21.67;;
52668;SDS011;59898;52.786;6.892;2022-11-15T03:59:28;42.40;;;23.75;;
52668;SDS011;59898;52.786;6.892;2022-11-15T04:02:49;40.97;;;22.38;;
52668;SDS011;59898;52.786;6.892;2022-11-15T04:06:09;46.13;;;25.88;;
52668;SDS011;59898;52.786;6.892;2022-11-15T04:09:30;50.33;;;24.73;;
52668;SDS011;59898;52.786;6.892;2022-11-15T04:12:51;43.47;;;26.27;;
52668;SDS011;59898;52.786;6.892;2022-11-15T04:16:11;40.10;;;25.13;;
52668;SDS011;59898;52.786;6.892;2022-11-15T04:19:32;51.72;;;26.38;;
52668;SDS011;59898;52.786;6.892;2022-11-15T04:23:12;51.05;;;27.15;;
52668;SDS011;59898;52.786;6.892;2022-11-15T04:26:53;53.47;;;28.73;;
52668;SDS011;59898;52.786;6.892;2022-11-15T04:30:14;52.35;;;31.13;;
52668;SDS011;59898;52.786;6.892;2022-11-15T04:33:35;52.55;;;30.52;;
52668;SDS011;59898;52.786;6.892;2022-11-15T04:36:56;58.00;;;31.88;;
52668;SDS011;59898;52.786;6.892;2022-11-15T04:40:31;50.58;;;30.00;;
52668;SDS011;59898;52.786;6.892;2022-11-15T04:43:52;50.63;;;28.30;;
52668;SDS011;59898;52.786;6.892;2022-11-15T04:47:12;53.55;;;32.65;;
52668;SDS011;59898;52.786;6.892;2022-11-15T04:50:33;51.38;;;33.85;;
52668;SDS011;59898;52.786;6.892;2022-11-15T04:53:54;43.80;;;28.58;;
52668;SDS011;59898;52.786;6.892;2022-11-15T04:57:14;49.17;;;29.35;;
52668;SDS011;59898;52.786;6.892;2022-11-15T05:00:35;41.42;;;26.52;;
52668;SDS011;59898;52.786;6.892;2022-11-15T05:03:56;42.33;;;25.85;;
52668;SDS011;59898;52.786;6.892;2022-11-15T05:07:35;46.28;;;27.17;;
52668;SDS011;59898;52.786;6.892;2022-11-15T05:10:56;40.95;;;27.55;;
52668;SDS011;59898;52.786;6.892;2022-11-15T05:14:16;45.30;;;26.00;;
52668;SDS011;59898;52.786;6.892;2022-11-15T05:17:37;41.85;;;24.27;;
52668;SDS011;59898;52.786;6.892;2022-11-15T05:21:04;32.58;;;24.15;;
52668;SDS011;59898;52.786;6.892;2022-11-15T05:24:26;43.05;;;26.38;;
52668;SDS011;59898;52.786;6.892;2022-11-15T05:27:46;36.95;;;25.05;;
52668;SDS011;59898;52.786;6.892;2022-11-15T05:31:11;41.72;;;24.90;;
52668;SDS011;59898;52.786;6.892;2022-11-15T05:34:34;41.75;;;24.35;;
52668;SDS011;59898;52.786;6.892;2022-11-15T05:37:55;33.83;;;23.38;;
52668;SDS011;59898;52.786;6.892;2022-11-15T05:41:17;36.60;;;24.85;;
52668;SDS011;59898;52.786;6.892;2022-11-15T05:44:41;37.53;;;23.02;;
52668;SDS011;59898;52.786;6.892;2022-11-15T05:48:07;40.58;;;25.60;;
52668;SDS011;59898;52.786;6.892;2022-11-15T05:51:29;35.53;;;22.80;;
52668;SDS011;59898;52.786;6.892;2022-11-15T05:54:50;33.75;;;22.85;;
52668;SDS011;59898;52.786;6.892;2022-11-15T05:58:12;38.05;;;23.02;;
52668;SDS011;59898;52.786;6.892;2022-11-15T06:01:32;35.75;;;22.27;;
52668;SDS011;59898;52.786;6.892;2022-11-15T06:04:53;35.88;;;20.55;;
52668;SDS011;59898;52.786;6.892;2022-11-15T06:08:14;35.15;;;21.88;;
52668;SDS011;59898;52.786;6.892;2022-11-15T06:11:35;41.10;;;22.63;;
52668;SDS011;59898;52.786;6.892;2022-11-15T06:14:55;35.60;;;22.27;;
52668;SDS011;59898;52.786;6.892;2022-11-15T06:18:16;29.33;;;20.80;;
52668;SDS011;59898;52.786;6.892;2022-11-15T06:21:37;30.88;;;20.30;;
52668;SDS011;59898;52.786;6.892;2022-11-15T06:24:57;29.73;;;18.65;;
52668;SDS011;59898;52.786;6.892;2022-11-15T06:28:18;29.17;;;18.40;;
52668;SDS011;59898;52.786;6.892;2022-11-15T06:31:39;34.70;;;21.08;;
52668;SDS011;59898;52.786;6.892;2022-11-15T06:34:59;32.78;;;20.85;;
52668;SDS011;59898;52.786;6.892;2022-11-15T06:38:20;29.08;;;20.48;;
52668;SDS011;59898;52.786;6.892;2022-11-15T06:41:40;30.65;;;20.48;;
52668;SDS011;59898;52.786;6.892;2022-11-15T06:45:01;25.58;;;16.48;;
52668;SDS011;59898;52.786;6.892;2022-11-15T06:48:22;25.17;;;19.55;;
52668;SDS011;59898;52.786;6.892;2022-11-15T06:51:43;26.23;;;18.90;;
52668;SDS011;59898;52.786;6.892;2022-11-15T06:55:04;28.67;;;19.83;;
52668;SDS011;59898;52.786;6.892;2022-11-15T06:58:25;27.42;;;19.58;;
52668;SDS011;59898;52.786;6.892;2022-11-15T07:01:46;25.85;;;18.58;;
52668;SDS011;59898;52.786;6.892;2022-11-15T07:05:07;30.95;;;18.92;;
52668;SDS011;59898;52.786;6.892;2022-11-15T07:08:28;26.00;;;18.60;;
52668;SDS011;59898;52.786;6.892;2022-11-15T07:11:49;32.03;;;20.52;;
52668;SDS011;59898;52.786;6.892;2022-11-15T07:15:10;27.73;;;20.55;;
52668;SDS011;59898;52.786;6.892;2022-11-15T07:18:30;27.77;;;19.08;;
52668;SDS011;59898;52.786;6.892;2022-11-15T07:21:53;30.13;;;18.92;;
52668;SDS011;59898;52.786;6.892;2022-11-15T07:25:13;28.23;;;19.45;;
52668;SDS011;59898;52.786;6.892;2022-11-15T07:28:34;22.83;;;18.08;;
52668;SDS011;59898;52.786;6.892;2022-11-15T07:31:56;27.98;;;17.67;;
52668;SDS011;59898;52.786;6.892;2022-11-15T07:35:16;23.35;;;17.38;;
52668;SDS011;59898;52.786;6.892;2022-11-15T07:38:37;26.75;;;18.60;;
52668;SDS011;59898;52.786;6.892;2022-11-15T07:41:58;26.75;;;18.30;;
52668;SDS011;59898;52.786;6.892;2022-11-15T07:45:45;25.08;;;17.10;;
52668;SDS011;59898;52.786;6.892;2022-11-15T07:49:05;24.27;;;17.70;;
52668;SDS011;59898;52.786;6.892;2022-11-15T07:52:26;26.70;;;17.75;;
52668;SDS011;59898;52.786;6.892;2022-11-15T07:55:47;22.30;;;17.17;;
52668;SDS011;59898;52.786;6.892;2022-11-15T07:59:07;27.40;;;19.17;;
52668;SDS011;59898;52.786;6.892;2022-11-15T08:02:28;24.83;;;17.45;;
52668;SDS011;59898;52.786;6.892;2022-11-15T08:05:52;23.85;;;17.65;;
52668;SDS011;59898;52.786;6.892;2022-11-15T08:09:13;34.40;;;19.25;;
52668;SDS011;59898;52.786;6.892;2022-11-15T08:12:33;25.92;;;17.75;;
52668;SDS011;59898;52.786;6.892;2022-11-15T08:16:01;24.00;;;18.05;;
52668;SDS011;59898;52.786;6.892;2022-11-15T08:19:22;24.30;;;18.73;;
52668;SDS011;59898;52.786;6.892;2022-11-15T08:22:43;29.10;;;19.02;;
52668;SDS011;59898;52.786;6.892;2022-11-15T08:26:04;29.17;;;19.90;;
52668;SDS011;59898;52.786;6.892;2022-11-15T08:29:25;30.15;;;18.70;;
52668;SDS011;59898;52.786;6.892;2022-11-15T08:32:46;28.05;;;20.42;;
52668;SDS011;59898;52.786;6.892;2022-11-15T08:36:10;32.95;;;20.55;;
52668;SDS011;59898;52.786;6.892;2022-11-15T08:39:35;27.02;;;21.50;;
52668;SDS011;59898;52.786;6.892;2022-11-15T08:42:56;27.35;;;21.20;;
52668;SDS011;59898;52.786;6.892;2022-11-15T08:46:18;31.97;;;22.43;;
52668;SDS011;59898;52.786;6.892;2022-11-15T08:49:39;32.50;;;23.17;;
52668;SDS011;59898;52.786;6.892;2022-11-15T08:53:06;32.40;;;22.63;;
52668;SDS011;59898;52.786;6.892;2022-11-15T08:56:28;32.90;;;24.00;;
52668;SDS011;59898;52.786;6.892;2022-11-15T08:59:49;31.98;;;19.73;;
52668;SDS011;59898;52.786;6.892;2022-11-15T09:03:09;28.00;;;20.98;;
52668;SDS011;59898;52.786;6.892;2022-11-15T09:06:30;30.20;;;21.95;;
52668;SDS011;59898;52.786;6.892;2022-11-15T09:09:51;27.77;;;20.58;;
52668;SDS011;59898;52.786;6.892;2022-11-15T09:13:12;30.33;;;21.60;;
52668;SDS011;59898;52.786;6.892;2022-11-15T09:16:33;35.20;;;23.85;;
52668;SDS011;59898;52.786;6.892;2022-11-15T09:19:54;29.88;;;22.25;;
52668;SDS011;59898;52.786;6.892;2022-11-15T09:23:15;31.48;;;22.92;;
52668;SDS011;59898;52.786;6.892;2022-11-15T09:26:35;29.77;;;23.92;;
52668;SDS011;59898;52.786;6.892;2022-11-15T09:29:56;30.63;;;22.30;;
52668;SDS011;59898;52.786;6.892;2022-11-15T09:33:17;25.70;;;20.58;;
52668;SDS011;59898;52.786;6.892;2022-11-15T09:36:37;27.17;;;20.67;;
52668;SDS011;59898;52.786;6.892;2022-11-15T09:39:58;29.45;;;21.02;;
52668;SDS011;59898;52.786;6.892;2022-11-15T09:50:45;26.73;;;19.63;;
52668;SDS011;59898;52.786;6.892;2022-11-15T09:57:53;27.42;;;22.02;;
52668;SDS011;59898;52.786;6.892;2022-11-15T10:01:39;35.33;;;24.95;;
52668;SDS011;59898;52.786;6.892;2022-11-15T10:05:10;25.45;;;21.67;;
52668;SDS011;59898;52.786;6.892;2022-11-15T10:08:46;26.52;;;19.73;;
52668;SDS011;59898;52.786;6.892;2022-11-15T10:12:13;25.73;;;18.08;;
52668;SDS011;59898;52.786;6.892;2022-11-15T10:15:35;24.95;;;18.48;;
52668;SDS011;59898;52.786;6.892;2022-11-15T10:19:28;22.83;;;18.85;;
52668;SDS011;59898;52.786;6.892;2022-11-15T10:23:00;23.63;;;17.77;;
52668;SDS011;59898;52.786;6.892;2022-11-15T10:26:25;17.67;;;15.20;;
52668;SDS011;59898;52.786;6.892;2022-11-15T10:29:47;20.45;;;15.32;;
52668;SDS011;59898;52.786;6.892;2022-11-15T10:36:56;21.15;;;16.75;;
52668;SDS011;59898;52.786;6.892;2022-11-15T10:40:23;19.63;;;14.93;;
52668;SDS011;59898;52.786;6.892;2022-11-15T10:43:44;19.48;;;16.38;;
52668;SDS011;59898;52.786;6.892;2022-11-15T10:47:21;20.63;;;15.88;;
52668;SDS011;59898;52.786;6.892;2022-11-15T10:50:45;14.60;;;11.88;;
52668;SDS011;59898;52.786;6.892;2022-11-15T10:54:10;20.10;;;13.63;;
52668;SDS011;59898;52.786;6.892;2022-11-15T10:57:33;15.93;;;13.07;;
52668;SDS011;59898;52.786;6.892;2022-11-15T11:01:08;15.07;;;13.43;;
52668;SDS011;59898;52.786;6.892;2022-11-15T11:04:48;13.27;;;11.18;;
52668;SDS011;59898;52.786;6.892;2022-11-15T11:11:44;12.07;;;9.75;;
52668;SDS011;59898;52.786;6.892;2022-11-15T11:15:09;11.05;;;8.50;;
52668;SDS011;59898;52.786;6.892;2022-11-15T11:18:34;9.80;;;6.40;;
52668;SDS011;59898;52.786;6.892;2022-11-15T11:22:25;9.98;;;7.03;;
52668;SDS011;59898;52.786;6.892;2022-11-15T11:25:56;7.53;;;5.78;;
52668;SDS011;59898;52.786;6.892;2022-11-15T11:43:58;7.45;;;5.38;;
52668;SDS011;59898;52.786;6.892;2022-11-15T11:47:32;9.48;;;5.00;;
52668;SDS011;59898;52.786;6.892;2022-11-15T11:51:18;7.00;;;5.90;;
52668;SDS011;59898;52.786;6.892;2022-11-15T11:54:44;7.07;;;4.90;;
52668;SDS011;59898;52.786;6.892;2022-11-15T12:01:48;6.68;;;4.47;;
52668;SDS011;59898;52.786;6.892;2022-11-15T12:08:50;9.90;;;4.55;;
52668;SDS011;59898;52.786;6.892;2022-11-15T12:15:41;5.75;;;4.50;;
52668;SDS011;59898;52.786;6.892;2022-11-15T12:19:09;7.60;;;4.47;;
52668;SDS011;59898;52.786;6.892;2022-11-15T12:26:30;15.57;;;10.98;;
52668;SDS011;59898;52.786;6.892;2022-11-15T12:29:56;5.13;;;3.63;;
52668;SDS011;59898;52.786;6.892;2022-11-15T12:37:01;7.15;;;3.42;;
52668;SDS011;59898;52.786;6.892;2022-11-15T12:40:31;7.65;;;3.60;;
52668;SDS011;59898;52.786;6.892;2022-11-15T12:43:56;6.30;;;3.50;;
52668;SDS011;59898;52.786;6.892;2022-11-15T12:47:23;7.47;;;3.80;;
52668;SDS011;59898;52.786;6.892;2022-11-15T12:57:41;4.38;;;3.30;;
52668;SDS011;59898;52.786;6.892;2022-11-15T13:01:03;5.65;;;3.47;;
52668;SDS011;59898;52.786;6.892;2022-11-15T13:18:38;3.88;;;2.63;;
52668;SDS011;59898;52.786;6.892;2022-11-15T13:22:00;5.03;;;2.85;;
52668;SDS011;59898;52.786;6.892;2022-11-15T13:26:02;4.93;;;2.90;;
52668;SDS011;59898;52.786;6.892;2022-11-15T13:29:28;4.93;;;3.30;;
52668;SDS011;59898;52.786;6.892;2022-11-15T13:32:50;7.45;;;3.40;;
52668;SDS011;59898;52.786;6.892;2022-11-15T13:39:43;4.43;;;2.88;;
52668;SDS011;59898;52.786;6.892;2022-11-15T13:46:44;5.95;;;3.30;;
52668;SDS011;59898;52.786;6.892;2022-11-15T13:50:04;4.57;;;3.60;;
52668;SDS011;59898;52.786;6.892;2022-11-15T13:53:25;6.38;;;3.80;;
52668;SDS011;59898;52.786;6.892;2022-11-15T13:56:48;5.45;;;4.68;;
52668;SDS011;59898;52.786;6.892;2022-11-15T14:03:56;6.65;;;3.75;;
52668;SDS011;59898;52.786;6.892;2022-11-15T14:07:20;6.47;;;3.92;;
52668;SDS011;59898;52.786;6.892;2022-11-15T14:10:43;5.30;;;4.05;;
52668;SDS011;59898;52.786;6.892;2022-11-15T14:20:50;8.75;;;5.25;;
52668;SDS011;59898;52.786;6.892;2022-11-15T14:24:29;7.15;;;4.80;;
52668;SDS011;59898;52.786;6.892;2022-11-15T14:31:43;8.80;;;4.18;;
52668;SDS011;59898;52.786;6.892;2022-11-15T14:38:33;6.15;;;5.03;;
52668;SDS011;59898;52.786;6.892;2022-11-15T14:41:55;6.20;;;5.60;;
52668;SDS011;59898;52.786;6.892;2022-11-15T14:45:17;6.85;;;5.47;;
52668;SDS011;59898;52.786;6.892;2022-11-15T14:48:39;9.07;;;4.93;;
52668;SDS011;59898;52.786;6.892;2022-11-15T14:52:00;5.70;;;4.80;;
52668;SDS011;59898;52.786;6.892;2022-11-15T14:55:25;7.68;;;5.88;;
52668;SDS011;59898;52.786;6.892;2022-11-15T14:58:48;8.45;;;4.97;;
52668;SDS011;59898;52.786;6.892;2022-11-15T15:02:22;7.35;;;5.40;;
52668;SDS011;59898;52.786;6.892;2022-11-15T15:05:44;6.35;;;5.35;;
52668;SDS011;59898;52.786;6.892;2022-11-15T15:09:05;8.18;;;5.25;;
52668;SDS011;59898;52.786;6.892;2022-11-15T15:12:26;11.13;;;5.88;;
52668;SDS011;59898;52.786;6.892;2022-11-15T15:15:47;10.82;;;5.93;;
52668;SDS011;59898;52.786;6.892;2022-11-15T15:19:08;7.90;;;4.57;;
52668;SDS011;59898;52.786;6.892;2022-11-15T15:22:29;7.78;;;4.68;;
52668;SDS011;59898;52.786;6.892;2022-11-15T15:25:50;5.68;;;4.25;;
52668;SDS011;59898;52.786;6.892;2022-11-15T15:29:12;4.15;;;3.72;;
52668;SDS011;59898;52.786;6.892;2022-11-15T15:32:33;4.75;;;3.03;;
52668;SDS011;59898;52.786;6.892;2022-11-15T15:35:54;5.25;;;3.35;;
52668;SDS011;59898;52.786;6.892;2022-11-15T15:39:15;6.35;;;3.85;;
52668;SDS011;59898;52.786;6.892;2022-11-15T15:42:35;7.55;;;3.78;;
52668;SDS011;59898;52.786;6.892;2022-11-15T15:45:56;7.13;;;4.15;;
52668;SDS011;59898;52.786;6.892;2022-11-15T15:49:16;6.57;;;3.35;;
52668;SDS011;59898;52.786;6.892;2022-11-15T15:52:37;4.45;;;2.38;;
52668;SDS011;59898;52.786;6.892;2022-11-15T15:55:58;3.33;;;2.47;;
52668;SDS011;59898;52.786;6.892;2022-11-15T15:59:19;3.58;;;2.20;;
52668;SDS011;59898;52.786;6.892;2022-11-15T16:02:39;4.75;;;3.15;;
52668;SDS011;59898;52.786;6.892;2022-11-15T16:06:00;8.20;;;3.35;;
52668;SDS011;59898;52.786;6.892;2022-11-15T16:09:24;5.07;;;2.22;;
52668;SDS011;59898;52.786;6.892;2022-11-15T16:13:03;5.90;;;2.60;;
52668;SDS011;59898;52.786;6.892;2022-11-15T16:16:24;5.40;;;2.60;;
52668;SDS011;59898;52.786;6.892;2022-11-15T16:19:44;3.30;;;2.05;;
52668;SDS011;59898;52.786;6.892;2022-11-15T16:23:06;4.30;;;3.03;;
52668;SDS011;59898;52.786;6.892;2022-11-15T16:26:29;5.13;;;2.90;;
52668;SDS011;59898;52.786;6.892;2022-11-15T16:29:50;4.13;;;2.58;;
52668;SDS011;59898;52.786;6.892;2022-11-15T16:33:10;3.95;;;2.67;;
52668;SDS011;59898;52.786;6.892;2022-11-15T16:36:34;3.85;;;2.40;;
52668;SDS011;59898;52.786;6.892;2022-11-15T16:39:55;3.03;;;2.40;;
52668;SDS011;59898;52.786;6.892;2022-11-15T16:43:16;3.53;;;3.00;;
52668;SDS011;59898;52.786;6.892;2022-11-15T16:46:37;5.75;;;2.75;;
52668;SDS011;59898;52.786;6.892;2022-11-15T16:50:01;4.90;;;2.90;;
52668;SDS011;59898;52.786;6.892;2022-11-15T16:53:22;6.65;;;3.00;;
52668;SDS011;59898;52.786;6.892;2022-11-15T16:56:43;4.93;;;2.50;;
52668;SDS011;59898;52.786;6.892;2022-11-15T17:00:04;5.93;;;2.60;;
52668;SDS011;59898;52.786;6.892;2022-11-15T17:03:25;6.18;;;2.75;;
52668;SDS011;59898;52.786;6.892;2022-11-15T17:06:46;5.68;;;2.63;;
52668;SDS011;59898;52.786;6.892;2022-11-15T17:10:08;6.47;;;2.60;;
52668;SDS011;59898;52.786;6.892;2022-11-15T17:13:30;4.30;;;2.78;;
52668;SDS011;59898;52.786;6.892;2022-11-15T17:16:52;4.72;;;2.30;;
52668;SDS011;59898;52.786;6.892;2022-11-15T17:20:14;3.97;;;2.50;;
52668;SDS011;59898;52.786;6.892;2022-11-15T17:23:36;5.50;;;3.05;;
52668;SDS011;59898;52.786;6.892;2022-11-15T17:26:57;4.25;;;2.53;;
52668;SDS011;59898;52.786;6.892;2022-11-15T17:30:17;5.38;;;2.88;;
52668;SDS011;59898;52.786;6.892;2022-11-15T17:33:39;5.07;;;2.60;;
52668;SDS011;59898;52.786;6.892;2022-11-15T17:37:00;4.15;;;2.70;;
52668;SDS011;59898;52.786;6.892;2022-11-15T17:40:21;4.32;;;2.50;;
52668;SDS011;59898;52.786;6.892;2022-11-15T17:43:42;4.68;;;2.60;;
52668;SDS011;59898;52.786;6.892;2022-11-15T17:47:03;5.93;;;2.92;;
52668;SDS011;59898;52.786;6.892;2022-11-15T17:50:23;4.05;;;2.78;;
52668;SDS011;59898;52.786;6.892;2022-11-15T17:53:45;4.75;;;2.38;;
52668;SDS011;59898;52.786;6.892;2022-11-15T17:57:06;6.43;;;4.13;;
52668;SDS011;59898;52.786;6.892;2022-11-15T18:00:27;4.80;;;3.33;;
52668;SDS011;59898;52.786;6.892;2022-11-15T18:03:47;5.40;;;3.10;;
52668;SDS011;59898;52.786;6.892;2022-11-15T18:07:08;4.68;;;3.33;;
52668;SDS011;59898;52.786;6.892;2022-11-15T18:10:31;3.60;;;2.63;;
52668;SDS011;59898;52.786;6.892;2022-11-15T18:13:53;4.65;;;3.15;;
52668;SDS011;59898;52.786;6.892;2022-11-15T18:17:16;4.18;;;2.97;;
52668;SDS011;59898;52.786;6.892;2022-11-15T18:20:38;4.35;;;2.80;;
52668;SDS011;59898;52.786;6.892;2022-11-15T18:23:59;4.45;;;3.25;;
52668;SDS011;59898;52.786;6.892;2022-11-15T18:27:21;4.38;;;2.83;;
52668;SDS011;59898;52.786;6.892;2022-11-15T18:30:41;3.90;;;3.08;;
52668;SDS011;59898;52.786;6.892;2022-11-15T18:34:02;4.38;;;2.90;;
52668;SDS011;59898;52.786;6.892;2022-11-15T18:37:23;4.07;;;3.13;;
52668;SDS011;59898;52.786;6.892;2022-11-15T18:40:43;7.88;;;3.10;;
52668;SDS011;59898;52.786;6.892;2022-11-15T18:44:04;5.20;;;3.20;;
52668;SDS011;59898;52.786;6.892;2022-11-15T18:47:26;3.75;;;2.70;;
52668;SDS011;59898;52.786;6.892;2022-11-15T18:50:48;3.58;;;2.67;;
52668;SDS011;59898;52.786;6.892;2022-11-15T18:54:10;4.05;;;2.83;;
52668;SDS011;59898;52.786;6.892;2022-11-15T18:57:32;5.55;;;3.25;;
52668;SDS011;59898;52.786;6.892;2022-11-15T19:00:58;5.05;;;3.20;;
52668;SDS011;59898;52.786;6.892;2022-11-15T19:04:20;5.30;;;2.97;;
52668;SDS011;59898;52.786;6.892;2022-11-15T19:07:41;6.95;;;3.83;;
52668;SDS011;59898;52.786;6.892;2022-11-15T19:11:03;7.30;;;4.35;;
52668;SDS011;59898;52.786;6.892;2022-11-15T19:14:32;5.88;;;2.88;;
52668;SDS011;59898;52.786;6.892;2022-11-15T19:17:53;4.63;;;3.80;;
52668;SDS011;59898;52.786;6.892;2022-11-15T19:21:13;7.22;;;4.20;;
52668;SDS011;59898;52.786;6.892;2022-11-15T19:24:34;9.20;;;4.80;;
52668;SDS011;59898;52.786;6.892;2022-11-15T19:27:55;8.25;;;3.75;;
52668;SDS011;59898;52.786;6.892;2022-11-15T19:31:16;3.97;;;3.08;;
52668;SDS011;59898;52.786;6.892;2022-11-15T19:34:37;6.78;;;3.65;;
52668;SDS011;59898;52.786;6.892;2022-11-15T19:38:00;5.55;;;3.70;;
52668;SDS011;59898;52.786;6.892;2022-11-15T19:41:21;5.90;;;3.60;;
52668;SDS011;59898;52.786;6.892;2022-11-15T19:44:43;7.77;;;3.97;;
52668;SDS011;59898;52.786;6.892;2022-11-15T19:48:04;8.00;;;4.10;;
52668;SDS011;59898;52.786;6.892;2022-11-15T19:51:27;6.25;;;4.03;;
52668;SDS011;59898;52.786;6.892;2022-11-15T19:54:49;5.80;;;4.28;;
52668;SDS011;59898;52.786;6.892;2022-11-15T19:58:09;4.80;;;3.60;;
52668;SDS011;59898;52.786;6.892;2022-11-15T20:01:31;7.30;;;4.20;;
52668;SDS011;59898;52.786;6.892;2022-11-15T20:04:55;5.53;;;3.78;;
52668;SDS011;59898;52.786;6.892;2022-11-15T20:08:15;4.80;;;3.78;;
52668;SDS011;59898;52.786;6.892;2022-11-15T20:11:36;6.03;;;3.85;;
52668;SDS011;59898;52.786;6.892;2022-11-15T20:14:58;6.40;;;4.40;;
52668;SDS011;59898;52.786;6.892;2022-11-15T20:18:19;5.07;;;3.80;;
52668;SDS011;59898;52.786;6.892;2022-11-15T20:21:41;5.13;;;3.97;;
52668;SDS011;59898;52.786;6.892;2022-11-15T20:25:02;5.80;;;3.47;;
52668;SDS011;59898;52.786;6.892;2022-11-15T20:28:24;4.40;;;3.25;;
52668;SDS011;59898;52.786;6.892;2022-11-15T20:31:46;5.70;;;3.87;;
52668;SDS011;59898;52.786;6.892;2022-11-15T20:35:06;5.50;;;3.70;;
52668;SDS011;59898;52.786;6.892;2022-11-15T20:38:27;6.45;;;3.70;;
52668;SDS011;59898;52.786;6.892;2022-11-15T20:41:48;5.30;;;4.30;;
52668;SDS011;59898;52.786;6.892;2022-11-15T20:45:09;8.45;;;4.40;;
52668;SDS011;59898;52.786;6.892;2022-11-15T20:48:30;5.65;;;4.30;;
52668;SDS011;59898;52.786;6.892;2022-11-15T20:51:50;6.07;;;3.75;;
52668;SDS011;59898;52.786;6.892;2022-11-15T20:55:11;5.28;;;3.60;;
52668;SDS011;59898;52.786;6.892;2022-11-15T20:58:32;5.72;;;4.03;;
52668;SDS011;59898;52.786;6.892;2022-11-15T21:01:54;7.18;;;4.07;;
52668;SDS011;59898;52.786;6.892;2022-11-15T21:05:14;6.90;;;4.57;;
52668;SDS011;59898;52.786;6.892;2022-11-15T21:08:35;10.23;;;5.18;;
52668;SDS011;59898;52.786;6.892;2022-11-15T21:12:15;8.77;;;5.25;;
52668;SDS011;59898;52.786;6.892;2022-11-15T21:15:38;7.68;;;5.28;;
52668;SDS011;59898;52.786;6.892;2022-11-15T21:18:58;5.60;;;4.25;;
52668;SDS011;59898;52.786;6.892;2022-11-15T21:22:19;6.53;;;4.53;;
52668;SDS011;59898;52.786;6.892;2022-11-15T21:25:40;5.25;;;4.28;;
52668;SDS011;59898;52.786;6.892;2022-11-15T21:29:00;7.47;;;4.85;;
52668;SDS011;59898;52.786;6.892;2022-11-15T21:32:21;6.32;;;4.53;;
52668;SDS011;59898;52.786;6.892;2022-11-15T21:35:42;9.52;;;5.20;;
52668;SDS011;59898;52.786;6.892;2022-11-15T21:39:03;7.47;;;5.85;;
52668;SDS011;59898;52.786;6.892;2022-11-15T21:42:24;8.15;;;5.43;;
52668;SDS011;59898;52.786;6.892;2022-11-15T21:45:54;9.52;;;5.03;;
52668;SDS011;59898;52.786;6.892;2022-11-15T21:49:16;6.32;;;4.97;;
52668;SDS011;59898;52.786;6.892;2022-11-15T21:52:37;7.30;;;6.05;;
52668;SDS011;59898;52.786;6.892;2022-11-15T21:55:58;7.15;;;6.25;;
52668;SDS011;59898;52.786;6.892;2022-11-15T21:59:19;8.60;;;6.38;;
52668;SDS011;59898;52.786;6.892;2022-11-15T22:02:40;8.30;;;6.20;;
52668;SDS011;59898;52.786;6.892;2022-11-15T22:06:01;7.35;;;5.82;;
52668;SDS011;59898;52.786;6.892;2022-11-15T22:09:21;7.05;;;5.47;;
52668;SDS011;59898;52.786;6.892;2022-11-15T22:12:42;6.38;;;5.05;;
52668;SDS011;59898;52.786;6.892;2022-11-15T22:16:03;7.40;;;6.05;;
52668;SDS011;59898;52.786;6.892;2022-11-15T22:19:23;7.03;;;5.65;;
52668;SDS011;59898;52.786;6.892;2022-11-15T22:22:44;9.95;;;6.00;;